Time;durP1;ratioP1;P1;durP2;ratioP2;P2;SDS_P1;SDS_P2;PMS_P1;PMS_P2;Temp;Humidity;BMP_temperature;BMP_pressure;BME280_temperature;BME280_humidity;BME280_pressure;Samples;Min_cycle;Max_cycle;Signal;HPM_P1;HPM_P2
2022/07/17 00:01:47;;;;;;;;;;;;;;;21.93;30.01;98039.22;4940047;29;1228;-73
2022/07/17 00:04:13;;;;;;;;;;;;;;;22.19;29.37;98038.09;4940194;29;697;-73
2022/07/17 00:06:38;;;;;;;;;;;;;;;22.00;29.81;98039.00;4938897;29;923;-73
2022/07/17 00:09:04;;;;;;;;;;;;;;;21.93;30.10;98039.22;4939634;29;747;-73
2022/07/17 00:11:29;;;;;;;;;;;;;;;21.88;29.98;98042.59;4939879;29;788;-73
2022/07/17 00:13:54;;;;;;;;;;;;;;;21.94;29.97;98033.09;4939964;29;717;-73
2022/07/17 00:16:20;;;;;;;;;;;;;;;21.94;29.99;98032.28;4939320;29;1906;-73
2022/07/17 00:18:45;;;;;;;;;;;;;;;21.95;29.89;98028.22;4939557;29;772;-73
2022/07/17 00:21:11;;;;;;;;;;;;;;;21.90;30.04;98034.41;4939847;29;772;-73
2022/07/17 00:23:36;;;;;;;;;;;;;;;21.96;29.88;98030.59;4939505;29;760;-73
2022/07/17 00:26:02;;;;;;;;;;;;;;;21.88;30.26;98022.75;4939521;29;748;-73
2022/07/17 00:28:27;;;;;;;;;;;;;;;21.74;30.54;98029.59;4939302;29;757;-73
2022/07/17 00:30:52;;;;;;;;;;;;;;;21.98;30.19;98016.00;4939404;29;720;-74
2022/07/17 00:33:18;;;;;;;;;;;;;;;21.95;30.02;98016.88;4939261;29;721;-73
2022/07/17 00:35:43;;;;;;;;;;;;;;;21.99;29.66;98020.41;4939192;29;962;-73
2022/07/17 00:38:10;;;;;;;;;;;;;;;21.93;30.04;98019.38;4938729;29;1973;-73
2022/07/17 00:40:35;;;;;;;;;;;;;;;21.92;29.74;98023.47;4938500;29;908;-73
2022/07/17 00:43:00;;;;;;;;;;;;;;;21.90;29.80;98021.06;4938208;29;849;-74
2022/07/17 00:45:26;;;;;;;;;;;;;;;21.98;29.75;98021.66;4938972;29;969;-74
2022/07/17 00:47:53;;;;;;;;;;;;;;;21.71;30.13;98019.97;4938646;29;959;-73
2022/07/17 00:50:19;;;;;;;;;;;;;;;22.04;29.64;98025.53;4938389;29;941;-73
2022/07/17 00:52:44;;;;;;;;;;;;;;;21.87;29.80;98015.50;4938631;29;911;-74
2022/07/17 00:55:11;;;;;;;;;;;;;;;22.09;29.48;98027.81;4938378;29;980;-73
2022/07/17 00:57:36;;;;;;;;;;;;;;;21.82;30.00;98014.78;4936983;29;1973;-73
2022/07/17 01:00:02;;;;;;;;;;;;;;;21.72;30.13;98017.91;4937048;29;1017;-73
2022/07/17 01:02:32;;;;;;;;;;;;;;;21.84;29.97;98022.84;4935958;29;1201;-73
2022/07/17 01:04:58;;;;;;;;;;;;;;;21.87;29.84;98024.00;4938319;29;937;-73
2022/07/17 01:07:23;;;;;;;;;;;;;;;22.05;29.61;98022.25;4938240;29;1098;-73
2022/07/17 01:09:49;;;;;;;;;;;;;;;22.05;29.91;98021.44;4938350;29;879;-73
2022/07/17 01:12:14;;;;;;;;;;;;;;;21.85;30.20;98019.56;4938149;29;1045;-73
2022/07/17 01:14:40;;;;;;;;;;;;;;;21.83;30.14;98016.38;4936935;29;1008;-73
2022/07/17 01:17:05;;;;;;;;;;;;;;;22.14;29.67;98018.81;4937706;29;1903;-73
2022/07/17 01:19:31;;;;;;;;;;;;;;;22.04;29.68;98014.19;4937377;29;984;-73
2022/07/17 01:21:56;;;;;;;;;;;;;;;22.04;29.57;98011.38;4938103;29;936;-73
2022/07/17 01:24:21;;;;;;;;;;;;;;;21.96;29.82;98013.59;4937600;29;934;-73
2022/07/17 01:26:47;;;;;;;;;;;;;;;22.08;29.46;98020.56;4938227;29;923;-73
2022/07/17 01:29:15;;;;;;;;;;;;;;;21.94;29.96;98013.25;4936405;29;1023;-73
2022/07/17 01:31:40;;;;;;;;;;;;;;;21.85;30.11;98022.38;4937742;29;1054;-73
2022/07/17 01:34:06;;;;;;;;;;;;;;;21.93;29.86;98019.38;4937903;29;971;-73
2022/07/17 01:36:32;;;;;;;;;;;;;;;21.79;30.09;98015.69;4938438;29;1898;-73
2022/07/17 01:38:57;;;;;;;;;;;;;;;21.88;29.70;98017.88;4937733;29;994;-73
2022/07/17 01:41:23;;;;;;;;;;;;;;;21.95;29.67;98012.00;4937584;29;914;-73
2022/07/17 01:43:48;;;;;;;;;;;;;;;22.09;29.48;98022.94;4937574;29;1201;-74
2022/07/17 01:46:14;;;;;;;;;;;;;;;21.93;29.74;98020.16;4937302;29;928;-73
2022/07/17 01:48:39;;;;;;;;;;;;;;;21.97;29.50;98020.09;4937737;29;1054;-73
2022/07/17 01:51:05;;;;;;;;;;;;;;;21.89;30.12;98018.66;4937594;29;943;-73
2022/07/17 01:53:30;;;;;;;;;;;;;;;22.02;29.56;98028.00;4937454;29;972;-74
2022/07/17 01:55:55;;;;;;;;;;;;;;;22.03;29.71;98021.13;4937700;29;985;-73
2022/07/17 01:58:21;;;;;;;;;;;;;;;21.98;29.80;98022.47;4937568;29;1972;-73
2022/07/17 02:00:46;;;;;;;;;;;;;;;21.99;29.59;98024.03;4937049;29;1469;-73
2022/07/17 02:03:12;;;;;;;;;;;;;;;22.01;29.74;98032.09;4937259;29;950;-74
2022/07/17 02:05:37;;;;;;;;;;;;;;;21.82;30.22;98022.50;4937571;29;928;-73
2022/07/17 02:08:03;;;;;;;;;;;;;;;22.04;29.53;98025.53;4937073;29;959;-74
2022/07/17 02:10:28;;;;;;;;;;;;;;;22.02;29.75;98025.16;4937585;29;997;-73
2022/07/17 02:12:54;;;;;;;;;;;;;;;21.94;29.61;98026.63;4903641;29;1037;-73
2022/07/17 02:15:19;;;;;;;;;;;;;;;21.91;29.90;98021.84;4937438;29;1013;-73
2022/07/17 02:17:45;;;;;;;;;;;;;;;22.00;29.68;98028.47;4903063;29;1986;-73
2022/07/17 02:20:11;;;;;;;;;;;;;;;21.75;30.21;98031.97;4937208;29;942;-73
2022/07/17 02:22:36;;;;;;;;;;;;;;;21.87;29.90;98032.50;4935733;29;1001;-73
2022/07/17 02:25:02;;;;;;;;;;;;;;;21.89;30.01;98038.50;4937328;29;917;-73
2022/07/17 02:27:27;;;;;;;;;;;;;;;21.92;29.77;98040.47;4937251;29;997;-73
2022/07/17 02:29:53;;;;;;;;;;;;;;;21.98;29.77;98038.66;4936879;29;998;-74
2022/07/17 02:32:18;;;;;;;;;;;;;;;21.88;29.99;98039.75;4939056;29;857;-73
2022/07/17 02:34:44;;;;;;;;;;;;;;;21.91;30.14;98038.84;4940834;29;933;-74
2022/07/17 02:37:10;;;;;;;;;;;;;;;21.94;29.94;98043.63;4940754;29;1906;-73
2022/07/17 02:39:35;;;;;;;;;;;;;;;21.93;29.83;98047.69;4940924;29;1110;-73
2022/07/17 02:42:01;;;;;;;;;;;;;;;21.96;29.91;98047.59;4940595;29;956;-74
2022/07/17 02:44:26;;;;;;;;;;;;;;;21.92;29.86;98055.41;4940913;29;919;-73
2022/07/17 02:46:51;;;;;;;;;;;;;;;22.00;29.83;98045.47;4923834;29;952;-74
2022/07/17 02:49:17;;;;;;;;;;;;;;;21.94;29.86;98054.97;4923700;29;958;-73
2022/07/17 02:51:42;;;;;;;;;;;;;;;22.03;29.95;98057.94;4940668;29;1088;-73
2022/07/17 02:54:08;;;;;;;;;;;;;;;21.90;30.14;98054.25;4940921;29;967;-73
2022/07/17 02:56:33;;;;;;;;;;;;;;;21.95;29.82;98063.00;4940747;29;1910;-73
2022/07/17 02:58:59;;;;;;;;;;;;;;;21.93;29.95;98070.38;4940739;29;949;-73
2022/07/17 03:01:24;;;;;;;;;;;;;;;21.85;30.26;98070.53;4939953;29;1068;-73
2022/07/17 03:03:50;;;;;;;;;;;;;;;22.09;29.86;98068.28;4939281;29;1001;-74
2022/07/17 03:06:15;;;;;;;;;;;;;;;21.85;30.40;98064.09;4940402;29;1052;-73
2022/07/17 03:08:40;;;;;;;;;;;;;;;21.82;30.27;98067.81;4940585;29;985;-73
2022/07/17 03:11:06;;;;;;;;;;;;;;;22.02;30.12;98062.81;4940083;29;959;-73
2022/07/17 03:13:31;;;;;;;;;;;;;;;21.70;30.51;98063.66;4940345;29;1135;-73
2022/07/17 03:15:57;;;;;;;;;;;;;;;21.92;30.55;98063.13;4940134;29;1114;-74
2022/07/17 03:18:22;;;;;;;;;;;;;;;21.94;30.44;98067.09;4939843;29;1918;-73
2022/07/17 03:20:48;;;;;;;;;;;;;;;21.94;30.16;98060.63;4939898;29;956;-73
2022/07/17 03:23:13;;;;;;;;;;;;;;;22.00;30.26;98075.84;4939960;29;1023;-73
2022/07/17 03:25:38;;;;;;;;;;;;;;;22.03;29.98;98064.41;4939782;29;993;-74
2022/07/17 03:28:04;;;;;;;;;;;;;;;21.90;30.55;98068.41;4899840;29;1006;-73
2022/07/17 03:30:29;;;;;;;;;;;;;;;21.90;30.45;98066.38;4899580;29;1158;-74
2022/07/17 03:32:55;;;;;;;;;;;;;;;21.93;30.42;98065.50;4891180;29;1126;-73
2022/07/17 03:35:20;;;;;;;;;;;;;;;22.01;30.25;98061.22;4890032;29;1201;-73
2022/07/17 03:37:46;;;;;;;;;;;;;;;21.88;30.30;98068.06;4842831;29;2042;-74
2022/07/17 03:40:11;;;;;;;;;;;;;;;22.05;30.03;98072.44;4898258;29;1221;-73
2022/07/17 03:42:37;;;;;;;;;;;;;;;21.81;30.74;98071.88;4883931;29;1015;-73
2022/07/17 03:45:02;;;;;;;;;;;;;;;21.90;30.39;98072.03;4900048;29;964;-74
2022/07/17 03:47:28;;;;;;;;;;;;;;;22.04;30.49;98070.88;4853443;29;1013;-73
2022/07/17 03:49:53;;;;;;;;;;;;;;;21.98;30.38;98069.81;4900386;29;968;-74
2022/07/17 03:52:18;;;;;;;;;;;;;;;21.90;30.64;98074.06;4900022;29;1087;-73
2022/07/17 03:54:44;;;;;;;;;;;;;;;21.85;30.43;98076.19;4884410;29;958;-73
2022/07/17 03:57:09;;;;;;;;;;;;;;;22.00;30.19;98078.66;4899550;29;1903;-74
2022/07/17 03:59:35;;;;;;;;;;;;;;;22.01;30.46;98078.22;4928642;29;944;-73
2022/07/17 04:02:00;;;;;;;;;;;;;;;22.00;30.22;98076.63;4940193;29;1176;-74
2022/07/17 04:04:25;;;;;;;;;;;;;;;21.84;30.44;98085.94;4939611;29;871;-73
2022/07/17 04:06:51;;;;;;;;;;;;;;;22.16;29.95;98090.00;4939874;29;879;-74
2022/07/17 04:09:16;;;;;;;;;;;;;;;21.90;30.78;98094.69;4939524;29;826;-74
2022/07/17 04:11:42;;;;;;;;;;;;;;;21.90;30.43;98093.91;4899182;29;932;-74
2022/07/17 04:14:07;;;;;;;;;;;;;;;21.78;30.64;98084.91;4899109;29;860;-74
2022/07/17 04:16:33;;;;;;;;;;;;;;;21.91;30.49;98095.50;4880596;29;1986;-74
2022/07/17 04:18:58;;;;;;;;;;;;;;;21.88;30.53;98091.53;4898792;29;1097;-74
2022/07/17 04:21:24;;;;;;;;;;;;;;;21.98;30.46;98101.00;4898927;29;914;-74
2022/07/17 04:23:49;;;;;;;;;;;;;;;21.99;30.47;98103.38;4898827;29;818;-73
2022/07/17 04:26:15;;;;;;;;;;;;;;;21.96;30.41;98103.47;4883646;29;905;-74
2022/07/17 04:28:41;;;;;;;;;;;;;;;22.18;30.23;98110.19;4898824;29;859;-74
2022/07/17 04:31:06;;;;;;;;;;;;;;;22.05;30.22;98106.47;4898692;29;855;-74
2022/07/17 04:33:32;;;;;;;;;;;;;;;22.23;30.33;98106.03;4867706;29;878;-74
2022/07/17 04:35:57;;;;;;;;;;;;;;;21.92;30.74;98109.25;4899087;29;840;-73
2022/07/17 04:38:23;;;;;;;;;;;;;;;21.91;31.10;98112.50;4883486;29;1888;-74
2022/07/17 04:40:48;;;;;;;;;;;;;;;22.07;30.63;98103.97;4861531;29;1026;-74
2022/07/17 04:43:14;;;;;;;;;;;;;;;22.10;30.55;98108.75;4856082;29;1048;-74
2022/07/17 04:45:39;;;;;;;;;;;;;;;21.99;30.74;98111.88;4861313;29;1011;-74
2022/07/17 04:48:05;;;;;;;;;;;;;;;21.99;30.88;98122.41;4861375;29;939;-73
2022/07/17 04:50:30;;;;;;;;;;;;;;;21.84;31.13;98119.94;4837652;29;963;-73
2022/07/17 04:52:56;;;;;;;;;;;;;;;22.14;30.63;98120.81;4824521;29;1149;-74
2022/07/17 04:55:22;;;;;;;;;;;;;;;22.29;30.62;98122.03;4823736;29;803;-74
2022/07/17 04:57:48;;;;;;;;;;;;;;;22.27;30.53;98121.66;4824959;29;1907;-75
2022/07/17 05:00:15;;;;;;;;;;;;;;;22.20;30.64;98124.69;4806420;29;900;-74
2022/07/17 05:02:40;;;;;;;;;;;;;;;22.18;30.71;98126.41;4773496;30;1189;-74
2022/07/17 05:05:06;;;;;;;;;;;;;;;22.12;30.79;98125.31;4755309;30;1169;-74
2022/07/17 05:07:31;;;;;;;;;;;;;;;22.18;30.63;98135.69;4770023;30;826;-74
2022/07/17 05:09:57;;;;;;;;;;;;;;;22.15;30.96;98127.28;4787771;30;1274;-74
2022/07/17 05:12:22;;;;;;;;;;;;;;;22.11;30.85;98138.72;4801080;29;1115;-74
2022/07/17 05:14:47;;;;;;;;;;;;;;;22.08;30.91;98133.91;4803659;29;1002;-74
2022/07/17 05:17:13;;;;;;;;;;;;;;;22.17;30.83;98131.25;4824507;29;1900;-74
2022/07/17 05:19:38;;;;;;;;;;;;;;;22.10;31.29;98131.41;4824220;29;1517;-74
2022/07/17 05:22:04;;;;;;;;;;;;;;;21.92;31.51;98142.44;4824174;29;1100;-74
2022/07/17 05:24:29;;;;;;;;;;;;;;;22.04;31.40;98138.88;4823929;29;898;-74
2022/07/17 05:26:55;;;;;;;;;;;;;;;22.16;30.95;98143.84;4823982;29;929;-74
2022/07/17 05:29:20;;;;;;;;;;;;;;;22.16;31.18;98146.66;4822159;29;1078;-74
2022/07/17 05:31:46;;;;;;;;;;;;;;;22.12;31.10;98143.13;4787556;29;868;-74
2022/07/17 05:34:11;;;;;;;;;;;;;;;22.08;31.43;98150.91;4757396;30;982;-74
2022/07/17 05:36:36;;;;;;;;;;;;;;;22.01;31.54;98157.53;4792695;29;1985;-75
2022/07/17 05:39:02;;;;;;;;;;;;;;;22.19;31.15;98157.13;4787770;29;951;-74
2022/07/17 05:41:27;;;;;;;;;;;;;;;22.16;31.40;98154.38;4787293;29;1020;-74
2022/07/17 05:43:53;;;;;;;;;;;;;;;22.16;31.39;98163.66;4775520;29;1009;-74
2022/07/17 05:46:18;;;;;;;;;;;;;;;22.12;31.20;98168.63;4768781;30;905;-74
2022/07/17 05:48:44;;;;;;;;;;;;;;;22.20;31.38;98164.38;4734110;30;919;-74
2022/07/17 05:51:09;;;;;;;;;;;;;;;22.27;31.04;98161.34;4734217;30;880;-74
2022/07/17 05:53:35;;;;;;;;;;;;;;;22.26;31.11;98167.47;4734463;30;1016;-74
2022/07/17 05:56:00;;;;;;;;;;;;;;;22.07;31.34;98171.97;4746987;30;833;-74
2022/07/17 05:58:25;;;;;;;;;;;;;;;22.17;31.40;98165.25;4776818;29;1991;-74
2022/07/17 06:00:51;;;;;;;;;;;;;;;22.02;31.58;98169.66;4787560;29;1095;-74
2022/07/17 06:03:16;;;;;;;;;;;;;;;22.12;31.56;98170.66;4787528;29;1026;-74
2022/07/17 06:05:42;;;;;;;;;;;;;;;22.12;31.51;98179.16;4789762;29;1145;-74
2022/07/17 06:08:07;;;;;;;;;;;;;;;22.22;31.18;98181.72;4853425;29;787;-74
2022/07/17 06:10:33;;;;;;;;;;;;;;;22.30;31.12;98174.63;4864155;29;777;-74
2022/07/17 06:12:58;;;;;;;;;;;;;;;22.24;31.38;98179.25;4845719;29;951;-74
2022/07/17 06:15:24;;;;;;;;;;;;;;;22.43;30.81;98171.06;4827061;29;936;-74
2022/07/17 06:17:49;;;;;;;;;;;;;;;22.42;31.01;98169.47;4812278;29;1912;-74
2022/07/17 06:20:15;;;;;;;;;;;;;;;22.27;31.10;98181.19;4827059;29;925;-75
2022/07/17 06:22:40;;;;;;;;;;;;;;;22.25;31.49;98177.22;4827523;29;817;-74
2022/07/17 06:25:06;;;;;;;;;;;;;;;22.07;31.36;98177.63;4827747;29;952;-74
2022/07/17 06:27:31;;;;;;;;;;;;;;;22.08;31.31;98173.59;4845313;29;1040;-74
2022/07/17 06:29:57;;;;;;;;;;;;;;;22.21;31.24;98171.63;4845352;29;926;-74
2022/07/17 06:32:22;;;;;;;;;;;;;;;22.27;31.24;98169.84;4845630;29;961;-74
2022/07/17 06:34:48;;;;;;;;;;;;;;;22.25;31.35;98172.34;4845201;29;826;-74
2022/07/17 06:37:13;;;;;;;;;;;;;;;22.09;31.76;98169.50;4845135;29;1965;-74
2022/07/17 06:39:38;;;;;;;;;;;;;;;22.28;31.52;98177.13;4845026;29;955;-74
2022/07/17 06:42:04;;;;;;;;;;;;;;;22.29;31.13;98181.56;4845725;29;883;-74
2022/07/17 06:44:30;;;;;;;;;;;;;;;22.36;31.31;98172.06;4871969;29;952;-74
2022/07/17 06:46:55;;;;;;;;;;;;;;;22.30;31.47;98179.50;4882432;29;805;-74
2022/07/17 06:49:21;;;;;;;;;;;;;;;22.18;31.35;98178.22;4851069;29;931;-75
2022/07/17 06:51:47;;;;;;;;;;;;;;;22.29;31.09;98181.56;4883496;29;851;-74
2022/07/17 06:54:13;;;;;;;;;;;;;;;22.21;31.37;98177.31;4900657;29;866;-74
2022/07/17 06:56:38;;;;;;;;;;;;;;;22.28;31.10;98174.31;4929778;29;1895;-74
2022/07/17 06:59:06;;;;;;;;;;;;;;;22.40;30.87;98177.63;4941015;29;696;-74
2022/07/17 07:01:35;;;;;;;;;;;;;;;22.31;31.25;98184.72;4941151;29;1262;-74
2022/07/17 07:04:01;;;;;;;;;;;;;;;22.21;31.30;98182.19;4941210;29;784;-74
2022/07/17 07:06:26;;;;;;;;;;;;;;;22.35;30.86;98191.09;4940681;29;880;-74
2022/07/17 07:08:52;;;;;;;;;;;;;;;22.35;31.09;98188.28;4941035;29;903;-74
2022/07/17 07:11:17;;;;;;;;;;;;;;;22.30;31.07;98190.84;4941234;29;745;-73
2022/07/17 07:13:42;;;;;;;;;;;;;;;22.27;31.23;98195.34;4941058;29;739;-74
2022/07/17 07:16:08;;;;;;;;;;;;;;;22.18;31.22;98189.56;4941209;29;752;-74
2022/07/17 07:18:33;;;;;;;;;;;;;;;22.39;31.12;98198.72;4940088;29;1910;-73
2022/07/17 07:20:59;;;;;;;;;;;;;;;22.32;31.22;98189.16;4940983;29;748;-74
2022/07/17 07:23:24;;;;;;;;;;;;;;;22.39;30.97;98205.19;4940596;29;729;-74
2022/07/17 07:25:50;;;;;;;;;;;;;;;22.30;30.92;98203.00;4940520;29;816;-74
2022/07/17 07:28:15;;;;;;;;;;;;;;;22.24;31.19;98192.63;4940366;29;919;-74
2022/07/17 07:30:41;;;;;;;;;;;;;;;22.29;30.90;98192.91;4906548;29;979;-74
2022/07/17 07:33:06;;;;;;;;;;;;;;;22.27;31.03;98186.84;4940849;29;733;-73
2022/07/17 07:35:32;;;;;;;;;;;;;;;22.26;30.94;98190.16;4940637;29;756;-74
2022/07/17 07:37:57;;;;;;;;;;;;;;;22.35;31.12;98191.09;4940580;29;1973;-74
2022/07/17 07:40:23;;;;;;;;;;;;;;;22.12;31.15;98202.63;4940682;29;752;-74
2022/07/17 07:42:48;;;;;;;;;;;;;;;22.35;31.08;98187.47;4940631;29;748;-74
2022/07/17 07:45:14;;;;;;;;;;;;;;;22.34;30.87;98198.03;4940521;29;775;-74
2022/07/17 07:47:42;;;;;;;;;;;;;;;22.15;31.47;98207.44;4940466;29;756;-74
2022/07/17 07:50:08;;;;;;;;;;;;;;;22.22;31.18;98204.41;4940123;29;803;-74
2022/07/17 07:52:34;;;;;;;;;;;;;;;22.35;30.92;98210.16;4939660;29;907;-75
2022/07/17 07:54:59;;;;;;;;;;;;;;;22.23;30.96;98214.53;4940620;29;760;-73
2022/07/17 07:57:24;;;;;;;;;;;;;;;22.28;31.17;98211.16;4939893;29;1915;-74
2022/07/17 07:59:50;;;;;;;;;;;;;;;22.52;30.89;98216.59;4939924;29;796;-74
2022/07/17 08:02:15;;;;;;;;;;;;;;;22.33;30.93;98218.31;4940357;29;1191;-74
2022/07/17 08:04:41;;;;;;;;;;;;;;;22.36;31.05;98212.53;4939680;29;807;-74
2022/07/17 08:07:06;;;;;;;;;;;;;;;22.26;31.02;98219.28;4939661;29;843;-74
2022/07/17 08:09:32;;;;;;;;;;;;;;;22.40;30.78;98223.00;4939880;29;823;-74
2022/07/17 08:11:57;;;;;;;;;;;;;;;22.41;30.92;98230.25;4939757;29;792;-74
2022/07/17 08:14:22;;;;;;;;;;;;;;;22.31;31.02;98238.59;4939776;29;952;-74
2022/07/17 08:16:48;;;;;;;;;;;;;;;22.28;30.82;98231.00;4939367;29;1907;-73
2022/07/17 08:19:13;;;;;;;;;;;;;;;22.37;31.11;98227.50;4917861;29;931;-74
2022/07/17 08:21:39;;;;;;;;;;;;;;;22.42;31.05;98226.19;4917903;29;1002;-74
2022/07/17 08:24:04;;;;;;;;;;;;;;;22.58;30.84;98235.44;4918202;29;909;-74
2022/07/17 08:26:30;;;;;;;;;;;;;;;22.35;31.06;98232.84;4918147;29;745;-74
2022/07/17 08:28:55;;;;;;;;;;;;;;;22.27;31.15;98229.38;4917090;29;918;-74
2022/07/17 08:31:21;;;;;;;;;;;;;;;22.44;30.96;98229.38;4917777;29;871;-75
2022/07/17 08:33:46;;;;;;;;;;;;;;;22.31;30.73;98232.13;4898893;29;948;-74
2022/07/17 08:36:12;;;;;;;;;;;;;;;22.57;30.56;98231.03;4899118;29;911;-75
2022/07/17 08:38:37;;;;;;;;;;;;;;;22.51;30.40;98229.19;4898601;29;1914;-74
2022/07/17 08:41:04;;;;;;;;;;;;;;;22.46;30.57;98227.69;4899057;29;749;-74
2022/07/17 08:43:30;;;;;;;;;;;;;;;22.38;30.77;98233.97;4898974;29;689;-74
2022/07/17 08:45:55;;;;;;;;;;;;;;;22.50;31.01;98241.78;4882991;29;911;-74
2022/07/17 08:48:20;;;;;;;;;;;;;;;22.44;31.02;98240.72;4842721;29;962;-74
2022/07/17 08:50:46;;;;;;;;;;;;;;;22.29;31.35;98235.41;4824672;29;969;-74
2022/07/17 08:53:11;;;;;;;;;;;;;;;22.36;30.94;98235.22;4788254;29;999;-73
2022/07/17 08:55:37;;;;;;;;;;;;;;;22.36;31.07;98240.09;4788565;30;872;-74
2022/07/17 08:58:04;;;;;;;;;;;;;;;22.23;31.10;98245.69;4788441;29;2005;-74
2022/07/17 09:00:30;;;;;;;;;;;;;;;22.61;30.78;98250.78;4788632;29;813;-74
2022/07/17 09:03:05;;;;;;;;;;;;;;;22.34;31.04;98245.44;4788048;29;1299;-74
2022/07/17 09:05:31;;;;;;;;;;;;;;;22.45;31.05;98242.31;4788236;30;921;-73
2022/07/17 09:07:57;;;;;;;;;;;;;;;22.41;31.08;98250.09;4758423;30;1165;-74
2022/07/17 09:10:38;;;;;;;;;;;;;;;22.41;30.75;98241.59;4793486;29;931;-74
2022/07/17 09:13:16;;;;;;;;;;;;;;;22.40;30.83;98254.19;4809120;29;1140;-75
2022/07/17 09:15:42;;;;;;;;;;;;;;;22.37;30.93;98247.34;4824312;29;913;-74
2022/07/17 09:18:07;;;;;;;;;;;;;;;22.49;30.61;98248.69;4824492;29;1985;-74
2022/07/17 09:20:33;;;;;;;;;;;;;;;22.43;30.88;98250.44;4860504;29;801;-74
2022/07/17 09:22:58;;;;;;;;;;;;;;;22.55;30.84;98246.91;4861119;29;1011;-74
2022/07/17 09:25:37;;;;;;;;;;;;;;;22.61;30.52;98250.78;4898134;29;911;-74
2022/07/17 09:28:03;;;;;;;;;;;;;;;22.48;30.75;98258.41;4898021;29;785;-74
2022/07/17 09:30:28;;;;;;;;;;;;;;;22.44;30.56;98252.06;4898150;29;809;-73
2022/07/17 09:32:54;;;;;;;;;;;;;;;22.44;31.03;98252.06;4898055;29;768;-75
2022/07/17 09:35:20;;;;;;;;;;;;;;;22.55;30.66;98252.56;4860787;29;1040;-74
2022/07/17 09:37:46;;;;;;;;;;;;;;;22.45;30.89;98253.66;4897956;29;1989;-74
2022/07/17 09:41:09;;;;;;;;;;;;;;;22.42;30.88;98251.69;4897792;29;921;-74
2022/07/17 09:42:57;;;;;;;;;;;;;;;22.45;30.58;98248.78;4897672;29;789;-74
2022/07/17 09:45:22;;;;;;;;;;;;;;;22.34;30.81;98254.72;4898032;29;816;-74
2022/07/17 09:47:48;;;;;;;;;;;;;;;22.37;30.61;98255.84;4898229;29;828;-74
2022/07/17 09:50:13;;;;;;;;;;;;;;;22.49;30.73;98257.19;4898487;29;1013;-74
2022/07/17 09:52:39;;;;;;;;;;;;;;;22.29;30.99;98258.09;4897784;29;856;-74
2022/07/17 09:55:05;;;;;;;;;;;;;;;22.15;31.20;98247.09;4898137;29;944;-74
2022/07/17 09:57:31;;;;;;;;;;;;;;;22.34;30.93;98265.28;4878912;29;1899;-74
2022/07/17 10:00:02;;;;;;;;;;;;;;;22.31;30.77;98255.59;4863632;29;847;-74
2022/07/17 10:02:43;;;;;;;;;;;;;;;22.46;30.47;98261.69;4878820;29;1054;-74
2022/07/17 10:05:11;;;;;;;;;;;;;;;22.50;30.79;98253.13;4879413;29;1078;-74
2022/07/17 10:07:40;;;;;;;;;;;;;;;22.34;30.75;98263.22;4897587;29;897;-74
2022/07/17 10:10:06;;;;;;;;;;;;;;;22.40;30.71;98252.16;4841938;29;961;-74
2022/07/17 10:12:32;;;;;;;;;;;;;;;22.50;30.58;98250.28;4823674;29;937;-74
2022/07/17 10:14:57;;;;;;;;;;;;;;;22.53;30.47;98249.38;4807558;29;1584;-74
2022/07/17 10:17:23;;;;;;;;;;;;;;;22.42;30.55;98243.19;4823551;29;1970;-74
2022/07/17 10:19:50;;;;;;;;;;;;;;;22.46;30.63;98260.91;4823995;29;824;-74
2022/07/17 10:22:15;;;;;;;;;;;;;;;22.45;30.68;98250.81;4823780;29;1522;-74
2022/07/17 10:24:47;;;;;;;;;;;;;;;22.47;30.39;98251.16;4823525;29;1002;-74
2022/07/17 10:27:19;;;;;;;;;;;;;;;22.51;30.42;98246.19;4823749;29;866;-74
2022/07/17 10:29:45;;;;;;;;;;;;;;;22.45;30.73;98242.31;4842020;29;909;-74
2022/07/17 10:32:17;;;;;;;;;;;;;;;22.49;30.67;98249.47;4841804;29;868;-73
2022/07/17 10:34:42;;;;;;;;;;;;;;;22.40;30.59;98245.69;4804994;29;958;-74
2022/07/17 10:37:17;;;;;;;;;;;;;;;22.43;30.55;98244.78;4805360;29;1963;-75
2022/07/17 10:39:53;;;;;;;;;;;;;;;22.34;30.66;98248.25;4805783;29;880;-74
2022/07/17 10:42:36;;;;;;;;;;;;;;;22.43;30.64;98251.25;4841993;29;805;-73
2022/07/17 10:45:09;;;;;;;;;;;;;;;22.40;30.69;98254.19;4841796;29;816;-73
2022/07/17 10:47:44;;;;;;;;;;;;;;;22.46;30.53;98249.56;4838610;29;937;-74
2022/07/17 10:50:11;;;;;;;;;;;;;;;22.59;30.37;98250.44;4815546;29;903;-74
2022/07/17 10:52:36;;;;;;;;;;;;;;;22.50;30.51;98262.41;4824060;29;830;-74
2022/07/17 10:55:04;;;;;;;;;;;;;;;22.43;30.58;98258.94;4826626;29;857;-74
2022/07/17 10:57:30;;;;;;;;;;;;;;;22.43;30.65;98256.91;4826541;29;1880;-74
2022/07/17 10:59:56;;;;;;;;;;;;;;;22.35;30.63;98255.53;4826371;29;932;-75
2022/07/17 11:02:27;;;;;;;;;;;;;;;22.60;30.37;98252.81;4858320;29;1220;-74
2022/07/17 11:04:53;;;;;;;;;;;;;;;22.58;30.21;98257.34;4823456;29;1034;-74
2022/07/17 11:07:18;;;;;;;;;;;;;;;22.49;30.20;98257.19;4900758;29;1070;-74
2022/07/17 11:09:47;;;;;;;;;;;;;;;22.41;30.76;98258.59;4900700;29;1036;-74
2022/07/17 11:12:13;;;;;;;;;;;;;;;22.38;30.70;98248.94;4900376;29;811;-74
2022/07/17 11:14:38;;;;;;;;;;;;;;;22.49;30.65;98243.81;4900458;29;915;-74
2022/07/17 11:17:04;;;;;;;;;;;;;;;22.36;30.98;98246.56;4900654;29;1986;-75
2022/07/17 11:19:32;;;;;;;;;;;;;;;22.56;30.13;98248.50;4881557;29;814;-74
2022/07/17 11:22:09;;;;;;;;;;;;;;;22.51;30.44;98249.03;4897495;29;984;-74
2022/07/17 11:24:37;;;;;;;;;;;;;;;22.63;30.39;98248.28;4900116;29;1108;-74
2022/07/17 11:27:03;;;;;;;;;;;;;;;22.54;30.38;98251.00;4869069;29;949;-74
2022/07/17 11:29:28;;;;;;;;;;;;;;;22.62;30.44;98243.88;4900106;29;785;-74
2022/07/17 11:31:56;;;;;;;;;;;;;;;22.52;30.29;98242.09;4900561;29;840;-74
2022/07/17 11:34:24;;;;;;;;;;;;;;;22.58;30.37;98240.31;4881306;29;1003;-74
2022/07/17 11:36:49;;;;;;;;;;;;;;;22.36;30.44;98235.22;4881228;29;1911;-74
2022/07/17 11:39:15;;;;;;;;;;;;;;;22.54;30.46;98228.31;4881381;29;909;-74
2022/07/17 11:41:41;;;;;;;;;;;;;;;22.48;30.54;98230.84;4881136;29;1050;-74
2022/07/17 11:44:11;;;;;;;;;;;;;;;22.55;30.54;98246.91;4881202;29;994;-74
2022/07/17 11:46:36;;;;;;;;;;;;;;;22.51;30.65;98240.53;4881240;29;792;-74
2022/07/17 11:49:02;;;;;;;;;;;;;;;22.53;30.51;98229.53;4881334;29;793;-74
2022/07/17 11:51:34;;;;;;;;;;;;;;;22.62;30.51;98229.69;4881161;29;777;-74
2022/07/17 11:54:03;;;;;;;;;;;;;;;22.58;30.49;98229.78;4881112;29;894;-74
2022/07/17 11:56:28;;;;;;;;;;;;;;;22.71;30.03;98238.34;4881249;29;764;-74
2022/07/17 11:58:54;;;;;;;;;;;;;;;22.53;30.52;98233.16;4880731;29;1981;-74
2022/07/17 12:01:19;;;;;;;;;;;;;;;22.55;30.40;98235.56;4881010;29;1270;-74
2022/07/17 12:03:44;;;;;;;;;;;;;;;22.36;30.96;98229.56;4880739;29;879;-74
2022/07/17 12:06:10;;;;;;;;;;;;;;;22.47;30.77;98234.94;4898173;29;1171;-74
2022/07/17 12:08:35;;;;;;;;;;;;;;;22.69;30.44;98223.00;4902256;29;781;-74
2022/07/17 12:11:10;;;;;;;;;;;;;;;22.57;30.41;98239.53;4902021;29;828;-74
2022/07/17 12:13:39;;;;;;;;;;;;;;;22.48;30.82;98230.06;4902132;29;697;-73
2022/07/17 12:16:17;;;;;;;;;;;;;;;22.57;30.31;98233.06;4901969;29;777;-74
2022/07/17 12:18:43;;;;;;;;;;;;;;;22.71;30.28;98227.00;4901628;29;1911;-74
2022/07/17 12:21:08;;;;;;;;;;;;;;;22.43;30.63;98231.41;4902012;29;1082;-74
2022/07/17 12:23:36;;;;;;;;;;;;;;;22.51;30.72;98217.84;4901636;29;817;-73
2022/07/17 12:26:05;;;;;;;;;;;;;;;22.46;30.61;98227.69;4902147;29;860;-74
2022/07/17 12:28:31;;;;;;;;;;;;;;;22.34;30.89;98226.38;4902464;29;842;-74
2022/07/17 12:30:56;;;;;;;;;;;;;;;22.40;30.75;98228.66;4901549;29;901;-74
2022/07/17 12:33:21;;;;;;;;;;;;;;;22.43;30.49;98224.94;4901742;29;773;-74
2022/07/17 12:35:47;;;;;;;;;;;;;;;22.49;30.58;98226.00;4901448;29;847;-74
2022/07/17 12:38:12;;;;;;;;;;;;;;;22.48;30.56;98224.38;4901427;29;1966;-74
2022/07/17 12:40:38;;;;;;;;;;;;;;;22.57;30.48;98227.38;4901493;29;765;-74
2022/07/17 12:43:03;;;;;;;;;;;;;;;22.44;30.58;98223.72;4901651;29;697;-74
2022/07/17 12:45:29;;;;;;;;;;;;;;;22.66;30.48;98233.22;4901507;29;689;-74
2022/07/17 12:47:54;;;;;;;;;;;;;;;22.53;30.41;98226.69;4901383;29;783;-74
2022/07/17 12:50:19;;;;;;;;;;;;;;;22.49;30.65;98226.00;4900970;29;851;-74
2022/07/17 12:52:45;;;;;;;;;;;;;;;22.56;30.52;98231.47;4901437;29;745;-74
2022/07/17 12:55:11;;;;;;;;;;;;;;;22.76;30.11;98223.63;4901249;29;697;-74
2022/07/17 12:57:36;;;;;;;;;;;;;;;22.48;30.34;98225.19;4900986;29;1969;-74